Time;durP1;ratioP1;P1;durP2;ratioP2;P2;SDS_P1;SDS_P2;PMS_P1;PMS_P2;Temp;Humidity;BMP_temperature;BMP_pressure;BME280_temperature;BME280_humidity;BME280_pressure;Samples;Min_cycle;Max_cycle;Signal;HPM_P1;HPM_P2
2022/01/27 00:04:08;;;;;;;;;;;0.30;99.90;;;;;;4993061;28;20040;-80
2022/01/27 00:06:36;;;;;;;;;;;0.30;99.90;;;;;;4973399;28;19918;-80
2022/01/27 00:09:13;;;;;;;;;;;0.30;99.90;;;;;;4986772;28;19960;-80
2022/01/27 00:11:42;;;;;;;;;;;0.30;99.90;;;;;;4975197;28;19957;-80
2022/01/27 00:14:11;;;;;;;;;;;0.40;99.90;;;;;;4985946;28;19914;-80
2022/01/27 00:16:41;;;;;;;;;;;0.30;99.90;;;;;;4979201;28;19969;-80
2022/01/27 00:19:08;;;;;;;;;;;0.30;99.90;;;;;;5015550;23;19928;-82
2022/01/27 00:21:33;;;;;;;;;;;0.30;99.90;;;;;;5007581;28;19918;-79
2022/01/27 00:23:59;;;;;;;;;;;0.30;99.90;;;;;;4984760;28;20408;-81
2022/01/27 00:26:24;;;;;;;;;;;0.40;99.90;;;;;;4995484;28;19917;-80
2022/01/27 00:28:50;;;;;;;;;;;0.40;99.90;;;;;;5011413;28;19960;-80
2022/01/27 00:31:17;;;;;;;;;;;0.40;99.90;;;;;;4976479;28;19984;-80
2022/01/27 00:33:43;;;;;;;;;;;0.30;99.90;;;;;;4991333;28;19917;-80
2022/01/27 00:36:09;;;;;;;;;;;0.40;99.90;;;;;;4975059;28;20291;-80
2022/01/27 00:38:34;;;;;;;;;;;0.30;99.90;;;;;;5000795;28;19926;-80
2022/01/27 00:41:00;;;;;;;;;;;0.30;99.90;;;;;;4992187;28;19972;-80
2022/01/27 00:43:26;;;;;;;;;;;0.30;99.90;;;;;;4957749;28;19925;-80
2022/01/27 00:45:51;;;;;;;;;;;0.30;99.90;;;;;;4973045;28;20093;-82
2022/01/27 00:48:17;;;;;;;;;;;0.30;99.90;;;;;;4983186;28;19924;-84
2022/01/27 00:50:44;;;;;;;;;;;0.20;99.90;;;;;;4981945;28;20683;-82
2022/01/27 00:54:18;;;;;;;;;;;0.20;99.90;;;;;;4982874;28;20346;-84
2022/01/27 00:56:23;;;;;;;;;;;0.20;99.90;;;;;;4992454;28;19942;-82
2022/01/27 01:01:18;;;;;;;;;;;0.20;99.90;;;;;;4992061;28;20321;-81
2022/01/27 01:03:47;;;;;;;;;;;0.20;99.90;;;;;;4982784;28;19952;-83
2022/01/27 01:06:35;;;;;;;;;;;0.20;99.90;;;;;;4982909;28;19922;-82
2022/01/27 01:17:02;;;;;;;;;;;0.20;99.90;;;;;;4996899;28;19917;-81
2022/01/27 01:32:50;;;;;;;;;;;0.30;99.90;;;;;;4996671;28;19949;-81
2022/01/27 01:35:17;;;;;;;;;;;0.30;99.90;;;;;;4980258;28;19941;-81
2022/01/27 01:37:44;;;;;;;;;;;0.30;99.90;;;;;;4956688;28;19926;-82
2022/01/27 01:40:16;;;;;;;;;;;0.30;99.90;;;;;;4976452;28;19914;-82
2022/01/27 01:42:42;;;;;;;;;;;0.20;99.90;;;;;;4970663;28;19914;-80
2022/01/27 01:45:09;;;;;;;;;;;0.30;99.90;;;;;;4976873;28;19985;-79
2022/01/27 01:47:35;;;;;;;;;;;0.20;99.90;;;;;;4994062;28;19917;-79
2022/01/27 01:50:01;;;;;;;;;;;0.20;99.90;;;;;;4977244;28;19918;-83
2022/01/27 01:52:26;;;;;;;;;;;0.20;99.90;;;;;;4986236;28;19920;-81
2022/01/27 01:54:55;;;;;;;;;;;0.20;99.90;;;;;;5000651;28;19922;-80
2022/01/27 01:57:21;;;;;;;;;;;0.20;99.90;;;;;;4964578;28;19957;-81
2022/01/27 01:59:47;;;;;;;;;;;0.20;99.90;;;;;;4949080;28;19921;-81
2022/01/27 02:02:13;;;;;;;;;;;0.30;99.90;;;;;;4975757;28;19972;-81
2022/01/27 02:04:39;;;;;;;;;;;0.20;99.90;;;;;;4994450;28;19969;-79
2022/01/27 02:07:11;;;;;;;;;;;0.20;99.90;;;;;;4995338;28;21151;-79
2022/01/27 02:10:06;;;;;;;;;;;0.20;99.90;;;;;;4993471;28;20012;-79
2022/01/27 02:18:03;;;;;;;;;;;0.10;99.90;;;;;;5005594;28;19925;-82
2022/01/27 02:20:29;;;;;;;;;;;0.10;99.90;;;;;;4974337;28;19925;-83
2022/01/27 02:22:55;;;;;;;;;;;0.10;99.90;;;;;;4974757;28;19971;-80
2022/01/27 02:25:21;;;;;;;;;;;0.10;99.90;;;;;;4993840;28;20480;-80
2022/01/27 02:27:46;;;;;;;;;;;0.10;99.90;;;;;;4983259;28;20494;-82
2022/01/27 02:30:12;;;;;;;;;;;0.10;99.90;;;;;;4960844;28;19918;-82
2022/01/27 02:32:37;;;;;;;;;;;0.10;99.90;;;;;;4984865;28;19914;-80
2022/01/27 02:35:04;;;;;;;;;;;0.10;99.90;;;;;;4987702;28;19910;-80
2022/01/27 02:37:29;;;;;;;;;;;0.10;99.90;;;;;;4973881;28;19918;-79
2022/01/27 02:39:55;;;;;;;;;;;0.10;99.90;;;;;;4976662;28;19922;-83
2022/01/27 02:42:30;;;;;;;;;;;0.10;99.90;;;;;;4993968;28;19965;-80
2022/01/27 02:45:00;;;;;;;;;;;0.10;99.90;;;;;;4976060;28;19918;-82
2022/01/27 02:47:26;;;;;;;;;;;0.10;99.90;;;;;;4987082;28;19941;-79
2022/01/27 02:49:52;;;;;;;;;;;0.10;99.90;;;;;;4992544;28;19918;-82
2022/01/27 02:52:17;;;;;;;;;;;0.10;99.90;;;;;;4993377;28;19921;-80
2022/01/27 02:54:43;;;;;;;;;;;0.10;99.90;;;;;;4993688;28;19914;-83
2022/01/27 02:57:09;;;;;;;;;;;0.00;99.90;;;;;;4981917;28;20037;-82
2022/01/27 02:59:34;;;;;;;;;;;0.00;99.90;;;;;;4977165;28;19949;-81
2022/01/27 03:02:00;;;;;;;;;;;0.00;99.90;;;;;;4982519;28;19918;-80
2022/01/27 03:04:26;;;;;;;;;;;0.00;99.90;;;;;;4979103;28;19914;-81
2022/01/27 03:06:52;;;;;;;;;;;0.00;99.90;;;;;;4992786;28;19921;-81
2022/01/27 03:09:18;;;;;;;;;;;0.00;99.90;;;;;;4972842;28;19918;-81
2022/01/27 03:11:45;;;;;;;;;;;0.00;99.90;;;;;;4989776;28;19921;-83
2022/01/27 03:14:11;;;;;;;;;;;0.00;99.90;;;;;;4990611;28;19918;-80
2022/01/27 03:16:37;;;;;;;;;;;0.00;99.90;;;;;;4979270;28;19926;-80
2022/01/27 03:19:02;;;;;;;;;;;0.00;99.90;;;;;;4990058;28;19921;-79
2022/01/27 03:21:28;;;;;;;;;;;0.00;99.90;;;;;;4976395;28;19921;-80
2022/01/27 03:23:54;;;;;;;;;;;0.00;99.90;;;;;;4970038;28;19918;-81
2022/01/27 03:26:20;;;;;;;;;;;0.00;99.90;;;;;;4993582;28;20000;-80
2022/01/27 03:28:46;;;;;;;;;;;0.00;99.90;;;;;;4993437;28;19967;-81
2022/01/27 03:31:15;;;;;;;;;;;0.00;99.90;;;;;;4994910;28;19953;-81
2022/01/27 03:33:41;;;;;;;;;;;0.00;99.90;;;;;;4977622;28;20000;-80
2022/01/27 03:36:07;;;;;;;;;;;0.00;99.90;;;;;;4975848;28;19968;-80
2022/01/27 03:38:33;;;;;;;;;;;-0.10;99.90;;;;;;4976495;28;19918;-80
2022/01/27 03:40:59;;;;;;;;;;;-0.10;99.90;;;;;;4978049;28;19953;-80
2022/01/27 03:43:25;;;;;;;;;;;-0.10;99.90;;;;;;4981923;28;20393;-80
2022/01/27 03:45:50;;;;;;;;;;;-0.10;99.90;;;;;;4983360;28;19921;-81
2022/01/27 03:48:16;;;;;;;;;;;-0.10;99.90;;;;;;4977100;28;19960;-80
2022/01/27 03:50:42;;;;;;;;;;;-0.10;99.90;;;;;;4969079;28;20380;-80
2022/01/27 03:53:09;;;;;;;;;;;-0.10;99.90;;;;;;4988832;28;19918;-79
2022/01/27 03:55:34;;;;;;;;;;;-0.10;99.90;;;;;;4957474;28;20376;-79
2022/01/27 03:58:00;;;;;;;;;;;-0.10;99.90;;;;;;4977329;28;19933;-80
2022/01/27 04:00:25;;;;;;;;;;;-0.10;99.90;;;;;;4969471;28;20009;-82
2022/01/27 04:03:03;;;;;;;;;;;-0.20;99.90;;;;;;4964865;28;19964;-80
2022/01/27 04:05:34;;;;;;;;;;;-0.20;99.90;;;;;;4983188;28;19946;-81
2022/01/27 04:08:00;;;;;;;;;;;-0.30;99.90;;;;;;4977758;28;19918;-80
2022/01/27 04:10:26;;;;;;;;;;;-0.30;99.90;;;;;;4970483;28;19925;-80
2022/01/27 04:12:51;;;;;;;;;;;-0.30;99.90;;;;;;4984267;28;19914;-80
2022/01/27 04:15:17;;;;;;;;;;;-0.30;99.90;;;;;;4994914;28;19918;-81
2022/01/27 04:17:43;;;;;;;;;;;-0.30;99.90;;;;;;4981181;28;19917;-81
2022/01/27 04:20:09;;;;;;;;;;;-0.30;99.90;;;;;;4996814;28;20465;-80
2022/01/27 04:22:34;;;;;;;;;;;-0.40;99.90;;;;;;4999635;28;19929;-79
2022/01/27 04:25:00;;;;;;;;;;;-0.40;99.90;;;;;;5000331;28;20273;-82
2022/01/27 04:27:30;;;;;;;;;;;-0.30;99.90;;;;;;4991150;28;19913;-82
2022/01/27 04:29:56;;;;;;;;;;;-0.30;99.90;;;;;;4997588;28;19921;-82
2022/01/27 04:32:27;;;;;;;;;;;-0.40;99.90;;;;;;4996506;28;19911;-83
2022/01/27 04:34:59;;;;;;;;;;;-0.40;99.90;;;;;;4999556;28;19918;-82
2022/01/27 04:37:26;;;;;;;;;;;-0.40;99.90;;;;;;4983150;28;19926;-79
2022/01/27 04:40:10;;;;;;;;;;;-0.50;99.90;;;;;;4985309;28;19916;-80
2022/01/27 04:42:56;;;;;;;;;;;-0.50;99.90;;;;;;4992125;28;19918;-82
2022/01/27 04:45:27;;;;;;;;;;;-0.50;99.90;;;;;;4981892;28;19928;-79
2022/01/27 04:48:01;;;;;;;;;;;-0.40;99.90;;;;;;4992975;28;19918;-82
2022/01/27 04:50:28;;;;;;;;;;;-0.40;99.90;;;;;;4982137;28;20029;-82
2022/01/27 04:52:55;;;;;;;;;;;-0.40;99.90;;;;;;4973382;28;19969;-82
2022/01/27 04:55:23;;;;;;;;;;;-0.50;99.90;;;;;;4963292;28;19944;-82
2022/01/27 04:57:55;;;;;;;;;;;-0.50;99.90;;;;;;4979967;28;19948;-82
2022/01/27 05:00:21;;;;;;;;;;;-0.40;99.90;;;;;;4970912;28;20588;-81
2022/01/27 05:02:55;;;;;;;;;;;-0.50;99.90;;;;;;4997499;28;19926;-81
2022/01/27 05:05:21;;;;;;;;;;;-0.50;99.90;;;;;;4975071;28;19922;-80
2022/01/27 05:07:55;;;;;;;;;;;-0.40;99.90;;;;;;4999676;28;19918;-83
2022/01/27 05:10:23;;;;;;;;;;;-0.50;99.90;;;;;;4976836;28;19972;-82
2022/01/27 05:12:50;;;;;;;;;;;-0.50;99.90;;;;;;4998721;28;20265;-83
2022/01/27 05:15:17;;;;;;;;;;;-0.50;99.90;;;;;;4985565;28;19921;-83
2022/01/27 05:17:43;;;;;;;;;;;-0.50;99.90;;;;;;4980718;28;20351;-82
2022/01/27 05:20:09;;;;;;;;;;;-0.50;99.90;;;;;;4980819;28;19922;-80
2022/01/27 05:22:34;;;;;;;;;;;-0.50;99.90;;;;;;4980184;28;19914;-81
2022/01/27 05:25:00;;;;;;;;;;;-0.50;99.90;;;;;;4993616;28;20039;-80
2022/01/27 05:27:26;;;;;;;;;;;-0.50;99.90;;;;;;4997938;28;19918;-81
2022/01/27 05:29:52;;;;;;;;;;;-0.50;99.90;;;;;;4985801;28;19938;-80
2022/01/27 05:32:18;;;;;;;;;;;-0.50;99.90;;;;;;4956282;28;19925;-82
2022/01/27 05:34:44;;;;;;;;;;;-0.50;99.90;;;;;;4966577;28;19918;-81
2022/01/27 05:37:09;;;;;;;;;;;-0.50;99.90;;;;;;4993838;28;19914;-81
2022/01/27 05:39:35;;;;;;;;;;;-0.50;99.90;;;;;;5006484;28;19972;-79
2022/01/27 05:42:00;;;;;;;;;;;-0.50;99.90;;;;;;4989132;28;20406;-80
2022/01/27 05:44:26;;;;;;;;;;;-0.60;99.90;;;;;;4959651;28;19918;-81
2022/01/27 05:46:52;;;;;;;;;;;-0.60;99.90;;;;;;4984524;28;19921;-81
2022/01/27 05:49:17;;;;;;;;;;;-0.60;99.90;;;;;;5005733;28;20061;-81
2022/01/27 05:51:43;;;;;;;;;;;-0.60;99.90;;;;;;4994608;28;19925;-80
2022/01/27 05:54:10;;;;;;;;;;;-0.60;99.90;;;;;;4980998;28;19919;-81
2022/01/27 05:56:36;;;;;;;;;;;-0.50;99.90;;;;;;4953789;28;20020;-82
2022/01/27 05:59:02;;;;;;;;;;;-0.60;99.90;;;;;;4994561;28;19957;-80
2022/01/27 06:01:28;;;;;;;;;;;-0.60;99.90;;;;;;4957625;28;20522;-80
2022/01/27 06:03:54;;;;;;;;;;;-0.50;99.90;;;;;;4977544;28;19926;-79
2022/01/27 06:06:19;;;;;;;;;;;-0.60;99.90;;;;;;4975502;28;19937;-80
2022/01/27 06:08:45;;;;;;;;;;;-0.60;99.90;;;;;;4970189;28;20013;-80
2022/01/27 06:11:11;;;;;;;;;;;-0.60;99.90;;;;;;4972142;28;19953;-82
2022/01/27 06:13:38;;;;;;;;;;;-0.50;99.90;;;;;;4984776;28;19948;-83
2022/01/27 06:16:09;;;;;;;;;;;-0.60;99.90;;;;;;4973848;28;19922;-82
2022/01/27 06:18:35;;;;;;;;;;;-0.50;99.90;;;;;;4977273;28;20319;-82
2022/01/27 06:21:03;;;;;;;;;;;-0.60;99.90;;;;;;4977756;23;20017;-78
2022/01/27 06:23:29;;;;;;;;;;;-0.60;99.90;;;;;;4968528;28;19918;-78
2022/01/27 06:25:55;;;;;;;;;;;-0.60;99.90;;;;;;4951947;28;19922;-78
2022/01/27 06:28:20;;;;;;;;;;;-0.60;99.90;;;;;;4969915;28;20387;-78
2022/01/27 06:30:46;;;;;;;;;;;-0.60;99.90;;;;;;4988062;28;19925;-78
2022/01/27 06:33:11;;;;;;;;;;;-0.60;99.90;;;;;;4963861;28;19918;-79
2022/01/27 06:35:38;;;;;;;;;;;-0.60;99.90;;;;;;4972822;28;19914;-77
2022/01/27 06:38:04;;;;;;;;;;;-0.70;99.90;;;;;;4966512;28;20373;-78
2022/01/27 06:40:30;;;;;;;;;;;-0.70;99.90;;;;;;4954180;28;19922;-78
2022/01/27 06:42:55;;;;;;;;;;;-0.80;99.90;;;;;;4984447;28;20401;-79
2022/01/27 06:45:21;;;;;;;;;;;-0.80;99.90;;;;;;4958706;28;20279;-78
2022/01/27 06:47:46;;;;;;;;;;;-0.80;99.90;;;;;;4977560;28;19993;-78
2022/01/27 06:50:12;;;;;;;;;;;-0.80;99.90;;;;;;4962922;28;20426;-78
2022/01/27 06:52:38;;;;;;;;;;;-0.80;99.90;;;;;;4967123;28;19958;-78
2022/01/27 06:55:05;;;;;;;;;;;-0.90;99.90;;;;;;4993295;28;19922;-78
2022/01/27 06:57:31;;;;;;;;;;;-0.90;99.90;;;;;;4978059;28;20540;-78
2022/01/27 06:59:56;;;;;;;;;;;-0.90;99.90;;;;;;4977210;28;19921;-78
2022/01/27 07:02:22;;;;;;;;;;;-0.90;99.90;;;;;;4978763;28;19925;-77
2022/01/27 07:04:49;;;;;;;;;;;-0.90;99.90;;;;;;4961632;28;19922;-78
2022/01/27 07:07:14;;;;;;;;;;;-0.90;99.90;;;;;;4975216;28;19957;-78
2022/01/27 07:09:40;;;;;;;;;;;-0.90;99.90;;;;;;4977842;28;19950;-77
2022/01/27 07:12:06;;;;;;;;;;;-0.80;99.90;;;;;;4961944;28;19918;-78
2022/01/27 07:14:33;;;;;;;;;;;-0.80;99.90;;;;;;4978408;28;19918;-78
2022/01/27 07:16:59;;;;;;;;;;;-0.80;99.90;;;;;;4992919;28;19929;-78
2022/01/27 07:19:24;;;;;;;;;;;-0.90;99.90;;;;;;4977742;28;19926;-78
2022/01/27 07:21:50;;;;;;;;;;;-0.90;99.90;;;;;;4978779;28;19941;-78
2022/01/27 07:24:15;;;;;;;;;;;-0.90;99.90;;;;;;4978857;28;20434;-79
2022/01/27 07:26:41;;;;;;;;;;;-0.90;99.90;;;;;;4963114;28;19964;-80
2022/01/27 07:29:07;;;;;;;;;;;-0.90;99.90;;;;;;4982392;28;19926;-78
2022/01/27 07:31:32;;;;;;;;;;;-0.90;99.90;;;;;;4983227;28;19918;-78
2022/01/27 07:34:00;;;;;;;;;;;-0.80;99.90;;;;;;4986540;28;20557;-78
2022/01/27 07:36:25;;;;;;;;;;;-0.80;99.90;;;;;;4958753;28;19953;-78
2022/01/27 07:38:51;;;;;;;;;;;-0.80;99.90;;;;;;4979032;28;20293;-78
2022/01/27 07:41:17;;;;;;;;;;;-0.80;99.90;;;;;;4991967;28;19918;-79
2022/01/27 07:43:44;;;;;;;;;;;-0.80;99.90;;;;;;4980440;28;19918;-78
2022/01/27 07:46:11;;;;;;;;;;;-0.80;99.90;;;;;;4979204;28;19941;-78
2022/01/27 07:48:37;;;;;;;;;;;-0.80;99.90;;;;;;4980032;28;19929;-78
2022/01/27 07:51:03;;;;;;;;;;;-0.80;99.90;;;;;;4976583;28;19914;-78
2022/01/27 07:53:29;;;;;;;;;;;-0.90;99.90;;;;;;4965334;28;19969;-78
2022/01/27 07:55:54;;;;;;;;;;;-0.90;99.90;;;;;;4977231;28;19918;-78
2022/01/27 07:58:20;;;;;;;;;;;-0.90;99.90;;;;;;4975984;28;20592;-78
2022/01/27 08:00:46;;;;;;;;;;;-0.90;99.90;;;;;;4986802;28;20016;-78
2022/01/27 08:03:11;;;;;;;;;;;-0.90;99.90;;;;;;4962107;28;19918;-78
2022/01/27 08:05:37;;;;;;;;;;;-1.00;99.90;;;;;;4974608;28;19953;-77
2022/01/27 08:08:02;;;;;;;;;;;-0.90;99.90;;;;;;4974981;28;19914;-79
2022/01/27 08:10:28;;;;;;;;;;;-0.90;99.90;;;;;;4957025;28;20111;-77
2022/01/27 08:12:54;;;;;;;;;;;-1.00;99.90;;;;;;4974838;28;20411;-78
2022/01/27 08:15:22;;;;;;;;;;;-1.00;99.90;;;;;;4974711;28;19925;-77
2022/01/27 08:17:48;;;;;;;;;;;-1.00;99.90;;;;;;4975174;28;19972;-77
2022/01/27 08:20:14;;;;;;;;;;;-1.00;99.90;;;;;;4970478;28;19918;-77
2022/01/27 08:22:43;;;;;;;;;;;-1.00;99.90;;;;;;4973053;28;19924;-78
2022/01/27 08:25:08;;;;;;;;;;;-1.00;99.90;;;;;;4969597;28;19928;-78
2022/01/27 08:27:36;;;;;;;;;;;-1.00;99.90;;;;;;4969735;28;19918;-78
2022/01/27 08:30:04;;;;;;;;;;;-1.10;99.90;;;;;;4989652;28;19926;-79
2022/01/27 08:32:44;;;;;;;;;;;-1.00;99.90;;;;;;4975110;28;19949;-78
2022/01/27 08:35:10;;;;;;;;;;;-1.10;99.90;;;;;;4973602;28;19992;-78
2022/01/27 08:37:36;;;;;;;;;;;-1.10;99.90;;;;;;4956001;28;19972;-77
2022/01/27 08:40:02;;;;;;;;;;;-1.10;99.90;;;;;;4973063;28;19946;-78
2022/01/27 08:42:28;;;;;;;;;;;-1.10;99.90;;;;;;4957767;28;20418;-78
2022/01/27 08:44:53;;;;;;;;;;;-1.10;99.90;;;;;;4970880;28;20025;-78
2022/01/27 08:47:19;;;;;;;;;;;-1.10;99.90;;;;;;4958930;28;19930;-78
2022/01/27 08:49:46;;;;;;;;;;;-1.00;99.90;;;;;;4978016;28;19922;-78
2022/01/27 08:52:15;;;;;;;;;;;-1.00;99.90;;;;;;4968624;28;19950;-78
2022/01/27 08:54:42;;;;;;;;;;;-1.00;99.90;;;;;;4970422;28;19914;-78
2022/01/27 08:57:08;;;;;;;;;;;-1.00;99.90;;;;;;4967277;28;19918;-78
2022/01/27 08:59:34;;;;;;;;;;;-1.00;99.90;;;;;;4973136;28;19922;-78
2022/01/27 09:01:59;;;;;;;;;;;-0.90;99.90;;;;;;4973309;28;19929;-78
2022/01/27 09:04:25;;;;;;;;;;;-0.90;99.90;;;;;;4972918;28;19993;-78
2022/01/27 09:06:51;;;;;;;;;;;-0.90;99.90;;;;;;4970816;28;19940;-78
2022/01/27 09:09:16;;;;;;;;;;;-0.90;99.90;;;;;;4971275;28;19925;-78
2022/01/27 09:11:46;;;;;;;;;;;-0.90;99.90;;;;;;4987313;28;19922;-78
2022/01/27 09:14:13;;;;;;;;;;;-0.90;99.90;;;;;;4973069;28;19925;-78
2022/01/27 09:16:39;;;;;;;;;;;-0.80;99.90;;;;;;4973709;28;19977;-78
2022/01/27 09:19:05;;;;;;;;;;;-0.80;99.90;;;;;;4984954;28;19930;-79
2022/01/27 09:21:41;;;;;;;;;;;-0.80;99.90;;;;;;4971160;28;19918;-79
2022/01/27 09:24:06;;;;;;;;;;;-0.80;99.90;;;;;;4974017;28;19922;-78
2022/01/27 09:26:42;;;;;;;;;;;-0.80;99.90;;;;;;4969651;28;19914;-78
2022/01/27 09:29:08;;;;;;;;;;;-0.80;99.90;;;;;;4969131;28;19918;-78
2022/01/27 09:31:34;;;;;;;;;;;-0.80;99.90;;;;;;4974199;28;19961;-78
2022/01/27 09:33:59;;;;;;;;;;;-0.80;99.90;;;;;;4969153;28;19923;-78
2022/01/27 09:36:25;;;;;;;;;;;-0.70;99.90;;;;;;4982769;28;20019;-78
2022/01/27 09:38:51;;;;;;;;;;;-0.80;99.90;;;;;;4973709;28;20407;-79
2022/01/27 09:41:19;;;;;;;;;;;-0.80;99.90;;;;;;4977862;28;19970;-77
2022/01/27 09:43:46;;;;;;;;;;;-0.70;99.90;;;;;;4970473;28;19969;-78
2022/01/27 09:46:15;;;;;;;;;;;-0.70;99.90;;;;;;4968600;28;19914;-78
2022/01/27 09:48:44;;;;;;;;;;;-0.70;99.90;;;;;;4971868;28;19914;-78
2022/01/27 09:53:44;;;;;;;;;;;-0.60;99.90;;;;;;4981329;28;20415;-78
2022/01/27 09:56:10;;;;;;;;;;;-0.60;99.90;;;;;;4967309;28;19918;-78
2022/01/27 09:58:36;;;;;;;;;;;-0.60;99.90;;;;;;4955522;28;19930;-80
2022/01/27 10:01:01;;;;;;;;;;;-0.60;99.90;;;;;;4969708;28;19922;-78
2022/01/27 10:03:28;;;;;;;;;;;-0.60;99.90;;;;;;4970787;28;20290;-78
2022/01/27 10:06:08;;;;;;;;;;;-0.60;99.90;;;;;;4969258;28;19914;-79
2022/01/27 10:08:34;;;;;;;;;;;-0.60;99.90;;;;;;4954358;28;19914;-78
2022/01/27 10:11:11;;;;;;;;;;;-0.60;99.90;;;;;;4964425;28;19969;-79
2022/01/27 10:13:38;;;;;;;;;;;-0.60;99.90;;;;;;4973096;28;19914;-79
2022/01/27 10:16:04;;;;;;;;;;;-0.50;99.90;;;;;;4950816;28;19918;-78
2022/01/27 10:18:35;;;;;;;;;;;-0.50;99.90;;;;;;4966126;28;19925;-78
2022/01/27 10:21:05;;;;;;;;;;;-0.50;99.90;;;;;;4981819;28;19976;-78
2022/01/27 10:23:33;;;;;;;;;;;-0.50;99.90;;;;;;4949729;29;19927;-79
2022/01/27 10:26:08;;;;;;;;;;;-0.50;99.90;;;;;;4982165;28;19951;-79
2022/01/27 10:28:45;;;;;;;;;;;-0.50;99.90;;;;;;4972196;28;19914;-78
2022/01/27 10:31:19;;;;;;;;;;;-0.40;99.90;;;;;;4963471;28;19914;-78
2022/01/27 10:33:50;;;;;;;;;;;-0.40;99.90;;;;;;4953457;28;19918;-79
2022/01/27 10:36:17;;;;;;;;;;;-0.40;99.90;;;;;;4963129;28;19969;-78
2022/01/27 10:38:43;;;;;;;;;;;-0.30;99.90;;;;;;4971892;28;19922;-79
2022/01/27 10:41:09;;;;;;;;;;;-0.30;99.90;;;;;;4970365;28;19918;-78
2022/01/27 10:43:34;;;;;;;;;;;-0.20;99.90;;;;;;4969088;28;19990;-78
2022/01/27 10:46:20;;;;;;;;;;;-0.20;99.90;;;;;;4968944;28;19929;-78
2022/01/27 10:48:59;;;;;;;;;;;-0.20;99.90;;;;;;4965473;28;19915;-79
2022/01/27 10:51:27;;;;;;;;;;;-0.10;99.90;;;;;;4975107;28;20373;-78
2022/01/27 10:56:41;;;;;;;;;;;-0.10;99.90;;;;;;4950679;28;19926;-80
2022/01/27 10:59:14;;;;;;;;;;;-0.20;99.90;;;;;;4962650;28;19929;-78
2022/01/27 11:01:43;;;;;;;;;;;-0.20;99.90;;;;;;4970719;28;19922;-78
2022/01/27 11:04:10;;;;;;;;;;;-0.30;99.90;;;;;;4971946;28;19918;-78
2022/01/27 11:06:36;;;;;;;;;;;-0.30;99.90;;;;;;4964977;28;19925;-78
2022/01/27 11:09:10;;;;;;;;;;;-0.30;99.90;;;;;;4971647;28;20369;-78
2022/01/27 11:11:39;;;;;;;;;;;-0.30;99.90;;;;;;4962341;28;19918;-79
2022/01/27 11:14:04;;;;;;;;;;;-0.30;99.90;;;;;;4955206;28;19926;-78
2022/01/27 11:16:36;;;;;;;;;;;-0.30;99.90;;;;;;4968946;28;19977;-78
2022/01/27 11:19:24;;;;;;;;;;;-0.30;99.90;;;;;;4970903;28;19959;-79
2022/01/27 11:22:02;;;;;;;;;;;-0.30;99.90;;;;;;4972280;28;20412;-79
2022/01/27 11:27:27;;;;;;;;;;;-0.30;99.90;;;;;;4967668;28;19918;-78
2022/01/27 11:29:57;;;;;;;;;;;-0.30;99.90;;;;;;4970051;28;19918;-79
2022/01/27 11:32:33;;;;;;;;;;;-0.20;99.90;;;;;;4957213;28;19922;-78
2022/01/27 11:34:59;;;;;;;;;;;-0.30;99.90;;;;;;4991587;28;19918;-79
2022/01/27 11:37:32;;;;;;;;;;;-0.20;99.90;;;;;;4972619;28;19914;-78
2022/01/27 11:40:02;;;;;;;;;;;-0.20;99.90;;;;;;4973510;28;20490;-77
2022/01/27 11:42:41;;;;;;;;;;;-0.20;99.90;;;;;;4970218;28;19921;-78
2022/01/27 11:45:22;;;;;;;;;;;-0.20;99.90;;;;;;4971510;28;20034;-78
2022/01/27 11:48:00;;;;;;;;;;;-0.20;99.90;;;;;;4974310;28;19921;-78
2022/01/27 11:50:37;;;;;;;;;;;-0.20;99.90;;;;;;4969089;28;19918;-78
2022/01/27 11:53:03;;;;;;;;;;;-0.20;99.90;;;;;;4972884;28;19914;-79
2022/01/27 11:55:44;;;;;;;;;;;-0.20;99.90;;;;;;4987286;28;19920;-80
2022/01/27 11:58:09;;;;;;;;;;;-0.20;99.90;;;;;;4990264;28;20028;-79
2022/01/27 12:00:37;;;;;;;;;;;-0.20;99.90;;;;;;4970535;28;20255;-78
2022/01/27 12:03:02;;;;;;;;;;;-0.10;99.90;;;;;;4975626;28;20273;-78
2022/01/27 12:05:29;;;;;;;;;;;-0.10;99.90;;;;;;4951146;28;19921;-79
2022/01/27 12:08:13;;;;;;;;;;;-0.10;99.90;;;;;;4971041;28;19918;-79
2022/01/27 12:10:46;;;;;;;;;;;-0.20;99.90;;;;;;4954255;28;19921;-78
2022/01/27 12:13:25;;;;;;;;;;;-0.20;99.90;;;;;;4980370;28;19925;-79
2022/01/27 12:16:09;;;;;;;;;;;-0.10;99.90;;;;;;4978918;28;19918;-79
2022/01/27 12:18:38;;;;;;;;;;;-0.10;99.90;;;;;;4982198;28;19926;-79
2022/01/27 12:21:23;;;;;;;;;;;-0.20;99.90;;;;;;4951418;28;19922;-79
2022/01/27 12:24:07;;;;;;;;;;;-0.20;99.90;;;;;;4987048;28;20066;-79
2022/01/27 12:26:49;;;;;;;;;;;-0.10;99.90;;;;;;4974750;28;19914;-79
2022/01/27 12:29:21;;;;;;;;;;;-0.10;99.90;;;;;;4965798;28;19956;-78
2022/01/27 12:31:47;;;;;;;;;;;-0.10;99.90;;;;;;4968631;28;19921;-79
2022/01/27 12:34:12;;;;;;;;;;;0.00;99.90;;;;;;4984598;28;20009;-79
2022/01/27 12:36:38;;;;;;;;;;;-0.10;99.90;;;;;;4968668;28;19918;-79
2022/01/27 12:39:05;;;;;;;;;;;0.00;99.90;;;;;;4966737;28;19918;-79
2022/01/27 12:41:37;;;;;;;;;;;-0.10;99.90;;;;;;4966798;28;19953;-79
2022/01/27 12:44:09;;;;;;;;;;;-0.10;99.90;;;;;;4973811;28;20500;-79
2022/01/27 12:46:35;;;;;;;;;;;0.00;99.90;;;;;;4973813;28;20343;-79
2022/01/27 12:49:03;;;;;;;;;;;0.00;99.90;;;;;;4975444;28;19919;-79
2022/01/27 12:51:45;;;;;;;;;;;0.00;99.90;;;;;;4982261;28;19922;-79
2022/01/27 12:54:11;;;;;;;;;;;0.00;99.90;;;;;;4971431;28;19918;-78
2022/01/27 12:56:37;;;;;;;;;;;0.00;99.90;;;;;;4973567;28;20507;-79
2022/01/27 12:59:11;;;;;;;;;;;0.00;99.90;;;;;;4970537;28;19922;-79
2022/01/27 13:01:37;;;;;;;;;;;0.00;99.90;;;;;;4966119;28;19914;-79
2022/01/27 13:04:03;;;;;;;;;;;0.00;99.90;;;;;;4973297;28;19914;-79
2022/01/27 13:06:30;;;;;;;;;;;0.00;99.90;;;;;;4973928;28;20443;-79
2022/01/27 13:09:12;;;;;;;;;;;0.00;99.90;;;;;;4986227;28;20289;-79
2022/01/27 13:11:39;;;;;;;;;;;0.00;99.90;;;;;;4963411;28;19914;-78
2022/01/27 13:14:07;;;;;;;;;;;-0.10;99.90;;;;;;4966349;28;19926;-79
2022/01/27 13:16:40;;;;;;;;;;;0.00;99.90;;;;;;4972446;28;19914;-79
2022/01/27 13:19:16;;;;;;;;;;;-0.10;99.90;;;;;;4970733;28;19922;-79
2022/01/27 13:21:43;;;;;;;;;;;0.00;99.90;;;;;;4971301;28;19968;-79
2022/01/27 13:24:18;;;;;;;;;;;-0.10;99.90;;;;;;4973326;28;20305;-79
2022/01/27 13:26:46;;;;;;;;;;;-0.10;99.90;;;;;;4971917;28;19914;-80
2022/01/27 13:29:13;;;;;;;;;;;-0.10;99.90;;;;;;4971468;28;19969;-79
2022/01/27 13:31:39;;;;;;;;;;;-0.10;99.90;;;;;;4972398;28;19914;-79
2022/01/27 13:34:04;;;;;;;;;;;-0.10;99.90;;;;;;4968959;28;19918;-79
2022/01/27 13:36:35;;;;;;;;;;;-0.20;99.90;;;;;;4971936;28;19931;-79
2022/01/27 13:39:35;;;;;;;;;;;-0.10;99.90;;;;;;4972261;28;19918;-79
2022/01/27 13:42:05;;;;;;;;;;;-0.10;99.90;;;;;;4972329;28;19958;-79
2022/01/27 13:44:31;;;;;;;;;;;-0.20;99.90;;;;;;4973556;28;19914;-79
2022/01/27 13:47:02;;;;;;;;;;;-0.10;99.90;;;;;;4971679;28;20021;-79
2022/01/27 13:49:31;;;;;;;;;;;-0.10;99.90;;;;;;4964778;28;19969;-79
2022/01/27 13:51:57;;;;;;;;;;;-0.10;99.90;;;;;;4972154;28;19920;-79
2022/01/27 13:54:36;;;;;;;;;;;-0.10;99.90;;;;;;4964796;28;19997;-79
2022/01/27 13:57:22;;;;;;;;;;;-0.10;99.90;;;;;;4973077;28;20025;-79
2022/01/27 14:00:00;;;;;;;;;;;-0.10;99.90;;;;;;4971133;28;19918;-79
2022/01/27 14:02:26;;;;;;;;;;;-0.10;99.90;;;;;;4971845;28;19918;-79
2022/01/27 14:04:54;;;;;;;;;;;-0.10;99.90;;;;;;4970035;28;19969;-79
2022/01/27 14:07:23;;;;;;;;;;;-0.10;99.90;;;;;;4964563;28;19921;-79
2022/01/27 14:09:48;;;;;;;;;;;-0.10;99.90;;;;;;4953839;28;19918;-79
2022/01/27 14:12:19;;;;;;;;;;;-0.10;99.90;;;;;;4965636;28;19922;-79
2022/01/27 14:14:47;;;;;;;;;;;-0.10;99.90;;;;;;4972946;28;19926;-80
2022/01/27 14:17:23;;;;;;;;;;;-0.10;99.90;;;;;;4971764;28;19918;-79
2022/01/27 14:19:49;;;;;;;;;;;-0.10;99.90;;;;;;4972239;28;19957;-79
2022/01/27 14:22:16;;;;;;;;;;;-0.10;99.90;;;;;;4966367;28;19957;-79
2022/01/27 14:25:05;;;;;;;;;;;-0.10;99.90;;;;;;4971549;28;19914;-79
2022/01/27 14:27:32;;;;;;;;;;;0.00;99.90;;;;;;4971076;28;19915;-80
2022/01/27 14:29:58;;;;;;;;;;;0.00;99.90;;;;;;4967063;28;19921;-79
2022/01/27 14:32:23;;;;;;;;;;;-0.10;99.90;;;;;;4971090;28;19914;-79
2022/01/27 14:34:49;;;;;;;;;;;0.00;99.90;;;;;;4969419;28;20070;-79
2022/01/27 14:37:14;;;;;;;;;;;0.00;99.90;;;;;;4970583;28;19925;-79
2022/01/27 14:39:40;;;;;;;;;;;0.00;99.90;;;;;;4969949;28;19915;-79
2022/01/27 14:42:06;;;;;;;;;;;0.00;99.90;;;;;;4959631;28;19925;-79
2022/01/27 14:44:34;;;;;;;;;;;0.00;99.90;;;;;;4977460;28;19914;-79
2022/01/27 14:47:02;;;;;;;;;;;0.00;99.90;;;;;;4970314;28;19925;-79
2022/01/27 14:49:28;;;;;;;;;;;0.00;99.90;;;;;;4973097;28;20351;-79
2022/01/27 14:51:54;;;;;;;;;;;0.10;99.90;;;;;;4970977;28;19956;-79
2022/01/27 14:54:19;;;;;;;;;;;0.10;99.90;;;;;;4971930;28;20029;-79
2022/01/27 14:56:45;;;;;;;;;;;0.20;99.90;;;;;;4994383;28;19969;-78
2022/01/27 14:59:11;;;;;;;;;;;0.10;99.90;;;;;;4972204;28;19929;-79
2022/01/27 15:01:36;;;;;;;;;;;0.00;99.90;;;;;;4967310;28;19949;-78
2022/01/27 15:04:02;;;;;;;;;;;0.10;99.90;;;;;;4972764;28;19922;-78
2022/01/27 15:06:28;;;;;;;;;;;0.00;99.90;;;;;;4974450;28;20005;-78
2022/01/27 15:08:55;;;;;;;;;;;0.00;99.90;;;;;;4961398;28;19918;-79